sensor_id;sensor_type;location;lat;lon;timestamp;P1;durP1;ratioP1;P2;durP2;ratioP2
78004;SDS011;67209;51.698;-0.292;2023-08-20T00:01:04;10.38;;;2.03;;
78004;SDS011;67209;51.698;-0.292;2023-08-20T00:03:30;10.80;;;2.22;;
78004;SDS011;67209;51.698;-0.292;2023-08-20T00:05:57;8.30;;;2.42;;
78004;SDS011;67209;51.698;-0.292;2023-08-20T00:08:23;7.70;;;1.95;;
78004;SDS011;67209;51.698;-0.292;2023-08-20T00:10:49;9.73;;;2.13;;
78004;SDS011;67209;51.698;-0.292;2023-08-20T00:13:15;8.75;;;2.20;;
78004;SDS011;67209;51.698;-0.292;2023-08-20T00:15:41;9.57;;;2.20;;
78004;SDS011;67209;51.698;-0.292;2023-08-20T00:18:07;8.52;;;2.25;;
78004;SDS011;67209;51.698;-0.292;2023-08-20T00:20:34;8.73;;;2.13;;
78004;SDS011;67209;51.698;-0.292;2023-08-20T00:23:00;13.18;;;2.30;;
78004;SDS011;67209;51.698;-0.292;2023-08-20T00:25:26;5.57;;;2.00;;
78004;SDS011;67209;51.698;-0.292;2023-08-20T00:27:52;6.40;;;1.85;;
78004;SDS011;67209;51.698;-0.292;2023-08-20T00:30:19;8.23;;;2.25;;
78004;SDS011;67209;51.698;-0.292;2023-08-20T00:32:46;6.40;;;1.63;;
78004;SDS011;67209;51.698;-0.292;2023-08-20T00:35:12;8.77;;;2.13;;
78004;SDS011;67209;51.698;-0.292;2023-08-20T00:37:37;7.47;;;1.80;;
78004;SDS011;67209;51.698;-0.292;2023-08-20T00:40:04;8.27;;;1.70;;
78004;SDS011;67209;51.698;-0.292;2023-08-20T00:42:30;13.48;;;4.40;;
78004;SDS011;67209;51.698;-0.292;2023-08-20T00:44:56;8.23;;;2.30;;
78004;SDS011;67209;51.698;-0.292;2023-08-20T00:47:22;8.80;;;1.98;;
78004;SDS011;67209;51.698;-0.292;2023-08-20T00:49:48;7.38;;;1.90;;
78004;SDS011;67209;51.698;-0.292;2023-08-20T00:52:15;7.53;;;1.65;;
78004;SDS011;67209;51.698;-0.292;2023-08-20T00:54:41;6.30;;;2.15;;
78004;SDS011;67209;51.698;-0.292;2023-08-20T00:57:08;11.45;;;1.90;;
78004;SDS011;67209;51.698;-0.292;2023-08-20T00:59:34;8.10;;;1.92;;
78004;SDS011;67209;51.698;-0.292;2023-08-20T01:02:01;8.68;;;2.20;;
78004;SDS011;67209;51.698;-0.292;2023-08-20T01:04:28;7.97;;;1.88;;
78004;SDS011;67209;51.698;-0.292;2023-08-20T01:10:19;10.70;;;2.15;;
78004;SDS011;67209;51.698;-0.292;2023-08-20T01:12:25;9.00;;;2.10;;
78004;SDS011;67209;51.698;-0.292;2023-08-20T01:14:51;7.65;;;2.03;;
78004;SDS011;67209;51.698;-0.292;2023-08-20T01:17:17;9.95;;;2.42;;
78004;SDS011;67209;51.698;-0.292;2023-08-20T01:19:43;8.32;;;2.40;;
78004;SDS011;67209;51.698;-0.292;2023-08-20T01:24:59;7.00;;;2.30;;
78004;SDS011;67209;51.698;-0.292;2023-08-20T01:30:15;11.10;;;2.50;;
78004;SDS011;67209;51.698;-0.292;2023-08-20T01:32:41;11.35;;;2.50;;
78004;SDS011;67209;51.698;-0.292;2023-08-20T01:35:14;12.50;;;2.75;;
78004;SDS011;67209;51.698;-0.292;2023-08-20T01:37:40;8.73;;;2.53;;
78004;SDS011;67209;51.698;-0.292;2023-08-20T01:40:06;8.90;;;2.35;;
78004;SDS011;67209;51.698;-0.292;2023-08-20T01:42:35;11.80;;;2.70;;
78004;SDS011;67209;51.698;-0.292;2023-08-20T01:45:01;10.88;;;2.92;;
78004;SDS011;67209;51.698;-0.292;2023-08-20T01:47:27;10.20;;;2.40;;
78004;SDS011;67209;51.698;-0.292;2023-08-20T01:49:53;10.60;;;3.00;;
78004;SDS011;67209;51.698;-0.292;2023-08-20T01:52:19;14.10;;;2.83;;
78004;SDS011;67209;51.698;-0.292;2023-08-20T01:54:45;13.13;;;2.72;;
78004;SDS011;67209;51.698;-0.292;2023-08-20T01:57:11;15.95;;;3.55;;
78004;SDS011;67209;51.698;-0.292;2023-08-20T01:59:38;11.10;;;2.80;;
78004;SDS011;67209;51.698;-0.292;2023-08-20T02:02:04;12.13;;;3.03;;
78004;SDS011;67209;51.698;-0.292;2023-08-20T02:04:31;12.60;;;2.95;;
78004;SDS011;67209;51.698;-0.292;2023-08-20T02:06:57;13.10;;;2.85;;
78004;SDS011;67209;51.698;-0.292;2023-08-20T02:09:23;12.68;;;3.13;;
78004;SDS011;67209;51.698;-0.292;2023-08-20T02:11:49;10.18;;;3.80;;
78004;SDS011;67209;51.698;-0.292;2023-08-20T02:14:15;13.32;;;2.80;;
78004;SDS011;67209;51.698;-0.292;2023-08-20T02:16:42;9.80;;;2.85;;
78004;SDS011;67209;51.698;-0.292;2023-08-20T02:19:08;10.20;;;2.70;;
78004;SDS011;67209;51.698;-0.292;2023-08-20T02:21:34;11.65;;;3.63;;
78004;SDS011;67209;51.698;-0.292;2023-08-20T02:24:00;10.55;;;2.85;;
78004;SDS011;67209;51.698;-0.292;2023-08-20T02:26:26;9.10;;;2.60;;
78004;SDS011;67209;51.698;-0.292;2023-08-20T02:28:52;14.50;;;3.13;;
78004;SDS011;67209;51.698;-0.292;2023-08-20T02:31:17;10.48;;;2.65;;
78004;SDS011;67209;51.698;-0.292;2023-08-20T02:33:43;9.82;;;2.80;;
78004;SDS011;67209;51.698;-0.292;2023-08-20T02:36:09;10.82;;;2.97;;
78004;SDS011;67209;51.698;-0.292;2023-08-20T02:38:36;11.30;;;3.58;;
78004;SDS011;67209;51.698;-0.292;2023-08-20T02:41:02;8.73;;;2.70;;
78004;SDS011;67209;51.698;-0.292;2023-08-20T02:43:28;11.85;;;3.35;;
78004;SDS011;67209;51.698;-0.292;2023-08-20T02:45:54;12.43;;;2.60;;
78004;SDS011;67209;51.698;-0.292;2023-08-20T02:48:20;10.98;;;2.78;;
78004;SDS011;67209;51.698;-0.292;2023-08-20T02:50:51;11.55;;;2.88;;
78004;SDS011;67209;51.698;-0.292;2023-08-20T02:53:17;8.70;;;2.65;;
78004;SDS011;67209;51.698;-0.292;2023-08-20T02:55:43;12.52;;;2.70;;
78004;SDS011;67209;51.698;-0.292;2023-08-20T02:58:09;11.13;;;2.88;;
78004;SDS011;67209;51.698;-0.292;2023-08-20T03:00:35;12.30;;;2.40;;
78004;SDS011;67209;51.698;-0.292;2023-08-20T03:03:01;9.90;;;2.30;;
78004;SDS011;67209;51.698;-0.292;2023-08-20T03:05:31;9.90;;;2.58;;
78004;SDS011;67209;51.698;-0.292;2023-08-20T03:07:57;10.27;;;2.53;;
78004;SDS011;67209;51.698;-0.292;2023-08-20T03:10:23;15.35;;;2.85;;
78004;SDS011;67209;51.698;-0.292;2023-08-20T03:12:49;12.52;;;2.88;;
78004;SDS011;67209;51.698;-0.292;2023-08-20T03:15:15;9.80;;;3.00;;
78004;SDS011;67209;51.698;-0.292;2023-08-20T03:17:41;11.85;;;2.42;;
78004;SDS011;67209;51.698;-0.292;2023-08-20T03:20:07;8.73;;;2.47;;
78004;SDS011;67209;51.698;-0.292;2023-08-20T03:22:33;11.35;;;2.88;;
78004;SDS011;67209;51.698;-0.292;2023-08-20T03:24:59;9.63;;;2.45;;
78004;SDS011;67209;51.698;-0.292;2023-08-20T03:27:25;13.55;;;2.88;;
78004;SDS011;67209;51.698;-0.292;2023-08-20T03:29:51;10.38;;;3.10;;
78004;SDS011;67209;51.698;-0.292;2023-08-20T03:32:18;10.80;;;2.78;;
78004;SDS011;67209;51.698;-0.292;2023-08-20T03:34:44;8.73;;;2.45;;
78004;SDS011;67209;51.698;-0.292;2023-08-20T03:37:10;10.15;;;2.40;;
78004;SDS011;67209;51.698;-0.292;2023-08-20T03:39:36;12.45;;;2.25;;
78004;SDS011;67209;51.698;-0.292;2023-08-20T03:42:02;6.47;;;2.10;;
78004;SDS011;67209;51.698;-0.292;2023-08-20T03:44:28;8.40;;;2.72;;
78004;SDS011;67209;51.698;-0.292;2023-08-20T03:46:55;14.32;;;2.75;;
78004;SDS011;67209;51.698;-0.292;2023-08-20T03:49:21;11.02;;;2.72;;
78004;SDS011;67209;51.698;-0.292;2023-08-20T03:51:47;7.35;;;2.17;;
78004;SDS011;67209;51.698;-0.292;2023-08-20T03:54:13;11.82;;;2.63;;
78004;SDS011;67209;51.698;-0.292;2023-08-20T03:56:39;10.07;;;2.20;;
78004;SDS011;67209;51.698;-0.292;2023-08-20T03:59:05;13.68;;;2.67;;
78004;SDS011;67209;51.698;-0.292;2023-08-20T04:01:31;7.47;;;2.40;;
78004;SDS011;67209;51.698;-0.292;2023-08-20T04:03:57;15.70;;;2.60;;
78004;SDS011;67209;51.698;-0.292;2023-08-20T04:06:23;10.60;;;2.60;;
78004;SDS011;67209;51.698;-0.292;2023-08-20T04:08:49;8.13;;;2.45;;
78004;SDS011;67209;51.698;-0.292;2023-08-20T04:11:15;8.20;;;2.40;;
78004;SDS011;67209;51.698;-0.292;2023-08-20T04:13:41;10.52;;;2.35;;
78004;SDS011;67209;51.698;-0.292;2023-08-20T04:16:08;10.95;;;2.58;;
78004;SDS011;67209;51.698;-0.292;2023-08-20T04:18:35;14.10;;;2.55;;
78004;SDS011;67209;51.698;-0.292;2023-08-20T04:21:01;9.20;;;2.10;;
78004;SDS011;67209;51.698;-0.292;2023-08-20T04:23:27;12.88;;;2.80;;
78004;SDS011;67209;51.698;-0.292;2023-08-20T04:25:53;9.90;;;2.50;;
78004;SDS011;67209;51.698;-0.292;2023-08-20T04:28:19;12.82;;;3.10;;
78004;SDS011;67209;51.698;-0.292;2023-08-20T04:30:45;14.57;;;2.67;;
78004;SDS011;67209;51.698;-0.292;2023-08-20T04:33:11;17.20;;;3.63;;
78004;SDS011;67209;51.698;-0.292;2023-08-20T04:35:37;13.02;;;3.35;;
78004;SDS011;67209;51.698;-0.292;2023-08-20T04:38:03;13.10;;;3.35;;
78004;SDS011;67209;51.698;-0.292;2023-08-20T04:40:29;13.30;;;3.10;;
78004;SDS011;67209;51.698;-0.292;2023-08-20T04:42:55;18.63;;;3.78;;
78004;SDS011;67209;51.698;-0.292;2023-08-20T04:45:21;14.25;;;3.17;;
78004;SDS011;67209;51.698;-0.292;2023-08-20T04:47:47;8.52;;;2.95;;
78004;SDS011;67209;51.698;-0.292;2023-08-20T04:50:13;11.43;;;2.75;;
78004;SDS011;67209;51.698;-0.292;2023-08-20T04:52:39;13.98;;;3.00;;
78004;SDS011;67209;51.698;-0.292;2023-08-20T04:55:05;13.90;;;2.95;;
78004;SDS011;67209;51.698;-0.292;2023-08-20T04:57:34;9.93;;;3.13;;
78004;SDS011;67209;51.698;-0.292;2023-08-20T05:00:00;7.75;;;2.88;;
78004;SDS011;67209;51.698;-0.292;2023-08-20T05:02:28;8.52;;;2.67;;
78004;SDS011;67209;51.698;-0.292;2023-08-20T05:04:54;11.60;;;2.85;;
78004;SDS011;67209;51.698;-0.292;2023-08-20T05:07:20;10.00;;;2.88;;
78004;SDS011;67209;51.698;-0.292;2023-08-20T05:09:46;13.02;;;2.67;;
78004;SDS011;67209;51.698;-0.292;2023-08-20T05:12:12;20.05;;;3.28;;
78004;SDS011;67209;51.698;-0.292;2023-08-20T05:14:38;9.30;;;3.05;;
78004;SDS011;67209;51.698;-0.292;2023-08-20T05:17:04;11.68;;;3.17;;
78004;SDS011;67209;51.698;-0.292;2023-08-20T05:19:30;10.38;;;2.60;;
78004;SDS011;67209;51.698;-0.292;2023-08-20T05:21:56;8.65;;;2.63;;
78004;SDS011;67209;51.698;-0.292;2023-08-20T05:24:24;9.60;;;3.05;;
78004;SDS011;67209;51.698;-0.292;2023-08-20T05:27:03;14.25;;;3.60;;
78004;SDS011;67209;51.698;-0.292;2023-08-20T05:29:30;14.45;;;3.90;;
78004;SDS011;67209;51.698;-0.292;2023-08-20T05:31:56;10.43;;;3.70;;
78004;SDS011;67209;51.698;-0.292;2023-08-20T05:34:22;11.25;;;3.38;;
78004;SDS011;67209;51.698;-0.292;2023-08-20T05:36:48;21.15;;;4.60;;
78004;SDS011;67209;51.698;-0.292;2023-08-20T05:39:14;11.82;;;3.35;;
78004;SDS011;67209;51.698;-0.292;2023-08-20T05:41:40;13.80;;;3.85;;
78004;SDS011;67209;51.698;-0.292;2023-08-20T05:44:06;14.45;;;3.90;;
78004;SDS011;67209;51.698;-0.292;2023-08-20T05:46:32;12.15;;;4.03;;
78004;SDS011;67209;51.698;-0.292;2023-08-20T05:48:58;14.05;;;4.70;;
78004;SDS011;67209;51.698;-0.292;2023-08-20T05:51:24;17.92;;;5.57;;
78004;SDS011;67209;51.698;-0.292;2023-08-20T05:53:50;15.25;;;5.28;;
78004;SDS011;67209;51.698;-0.292;2023-08-20T05:56:16;14.77;;;4.90;;
78004;SDS011;67209;51.698;-0.292;2023-08-20T05:58:42;13.35;;;4.40;;
78004;SDS011;67209;51.698;-0.292;2023-08-20T06:01:08;17.75;;;4.75;;
78004;SDS011;67209;51.698;-0.292;2023-08-20T06:03:34;15.77;;;4.53;;
78004;SDS011;67209;51.698;-0.292;2023-08-20T06:06:00;15.48;;;4.65;;
78004;SDS011;67209;51.698;-0.292;2023-08-20T06:08:26;13.82;;;4.75;;
78004;SDS011;67209;51.698;-0.292;2023-08-20T06:10:52;23.42;;;5.00;;
78004;SDS011;67209;51.698;-0.292;2023-08-20T06:13:18;15.43;;;4.25;;
78004;SDS011;67209;51.698;-0.292;2023-08-20T06:15:44;15.05;;;4.40;;
78004;SDS011;67209;51.698;-0.292;2023-08-20T06:18:10;12.35;;;4.57;;
78004;SDS011;67209;51.698;-0.292;2023-08-20T06:20:36;17.55;;;5.32;;
78004;SDS011;67209;51.698;-0.292;2023-08-20T06:23:02;10.13;;;4.03;;
78004;SDS011;67209;51.698;-0.292;2023-08-20T06:25:28;11.93;;;4.15;;
78004;SDS011;67209;51.698;-0.292;2023-08-20T06:27:54;8.45;;;3.65;;
78004;SDS011;67209;51.698;-0.292;2023-08-20T06:30:20;12.63;;;4.13;;
78004;SDS011;67209;51.698;-0.292;2023-08-20T06:32:46;12.48;;;3.65;;
78004;SDS011;67209;51.698;-0.292;2023-08-20T06:35:12;10.57;;;3.28;;
78004;SDS011;67209;51.698;-0.292;2023-08-20T06:37:38;14.80;;;3.50;;
78004;SDS011;67209;51.698;-0.292;2023-08-20T06:40:05;9.85;;;3.53;;
78004;SDS011;67209;51.698;-0.292;2023-08-20T06:42:31;9.55;;;3.20;;
78004;SDS011;67209;51.698;-0.292;2023-08-20T06:44:57;9.65;;;3.10;;
78004;SDS011;67209;51.698;-0.292;2023-08-20T06:47:23;8.55;;;2.97;;
78004;SDS011;67209;51.698;-0.292;2023-08-20T06:49:50;13.02;;;3.22;;
78004;SDS011;67209;51.698;-0.292;2023-08-20T06:52:16;6.25;;;2.90;;
78004;SDS011;67209;51.698;-0.292;2023-08-20T06:54:42;8.82;;;3.22;;
78004;SDS011;67209;51.698;-0.292;2023-08-20T06:57:08;10.13;;;3.20;;
78004;SDS011;67209;51.698;-0.292;2023-08-20T06:59:34;14.20;;;3.97;;
78004;SDS011;67209;51.698;-0.292;2023-08-20T07:02:00;11.27;;;3.28;;
78004;SDS011;67209;51.698;-0.292;2023-08-20T07:04:28;10.65;;;3.22;;
78004;SDS011;67209;51.698;-0.292;2023-08-20T07:06:54;11.43;;;3.25;;
78004;SDS011;67209;51.698;-0.292;2023-08-20T07:09:20;9.40;;;3.22;;
78004;SDS011;67209;51.698;-0.292;2023-08-20T07:11:46;10.48;;;3.28;;
78004;SDS011;67209;51.698;-0.292;2023-08-20T07:14:12;12.07;;;3.28;;
78004;SDS011;67209;51.698;-0.292;2023-08-20T07:16:38;8.95;;;3.05;;
78004;SDS011;67209;51.698;-0.292;2023-08-20T07:19:04;7.78;;;3.00;;
78004;SDS011;67209;51.698;-0.292;2023-08-20T07:21:30;11.73;;;3.10;;
78004;SDS011;67209;51.698;-0.292;2023-08-20T07:23:56;10.20;;;2.95;;
78004;SDS011;67209;51.698;-0.292;2023-08-20T07:26:22;10.73;;;2.90;;
78004;SDS011;67209;51.698;-0.292;2023-08-20T07:28:48;9.35;;;2.60;;
78004;SDS011;67209;51.698;-0.292;2023-08-20T07:31:28;10.32;;;3.20;;
78004;SDS011;67209;51.698;-0.292;2023-08-20T07:33:55;10.05;;;2.83;;
78004;SDS011;67209;51.698;-0.292;2023-08-20T07:36:21;12.25;;;3.10;;
78004;SDS011;67209;51.698;-0.292;2023-08-20T07:38:48;10.35;;;2.50;;
78004;SDS011;67209;51.698;-0.292;2023-08-20T07:41:14;8.88;;;2.88;;
78004;SDS011;67209;51.698;-0.292;2023-08-20T07:43:40;14.60;;;2.80;;
78004;SDS011;67209;51.698;-0.292;2023-08-20T07:46:07;7.65;;;3.05;;
78004;SDS011;67209;51.698;-0.292;2023-08-20T07:48:33;10.63;;;2.55;;
78004;SDS011;67209;51.698;-0.292;2023-08-20T07:50:59;10.65;;;2.72;;
78004;SDS011;67209;51.698;-0.292;2023-08-20T07:53:26;9.63;;;2.90;;
78004;SDS011;67209;51.698;-0.292;2023-08-20T07:55:52;9.70;;;2.53;;
78004;SDS011;67209;51.698;-0.292;2023-08-20T07:58:18;6.78;;;2.63;;
78004;SDS011;67209;51.698;-0.292;2023-08-20T08:00:44;11.18;;;2.92;;
78004;SDS011;67209;51.698;-0.292;2023-08-20T08:03:09;7.55;;;2.50;;
78004;SDS011;67209;51.698;-0.292;2023-08-20T08:05:36;11.13;;;2.50;;
78004;SDS011;67209;51.698;-0.292;2023-08-20T08:08:02;6.03;;;2.25;;
78004;SDS011;67209;51.698;-0.292;2023-08-20T08:10:28;7.70;;;2.28;;
78004;SDS011;67209;51.698;-0.292;2023-08-20T08:12:54;7.70;;;2.92;;
78004;SDS011;67209;51.698;-0.292;2023-08-20T08:15:20;10.32;;;2.70;;
78004;SDS011;67209;51.698;-0.292;2023-08-20T08:17:46;11.07;;;2.33;;
78004;SDS011;67209;51.698;-0.292;2023-08-20T08:20:12;8.85;;;2.45;;
78004;SDS011;67209;51.698;-0.292;2023-08-20T08:22:39;4.90;;;2.40;;
78004;SDS011;67209;51.698;-0.292;2023-08-20T08:25:05;5.47;;;2.13;;
78004;SDS011;67209;51.698;-0.292;2023-08-20T08:27:31;6.93;;;1.88;;
78004;SDS011;67209;51.698;-0.292;2023-08-20T08:29:57;9.25;;;2.17;;
78004;SDS011;67209;51.698;-0.292;2023-08-20T08:32:23;5.95;;;1.70;;
78004;SDS011;67209;51.698;-0.292;2023-08-20T08:34:50;9.43;;;2.15;;
78004;SDS011;67209;51.698;-0.292;2023-08-20T08:37:16;7.80;;;1.98;;
78004;SDS011;67209;51.698;-0.292;2023-08-20T08:39:42;4.93;;;1.70;;
78004;SDS011;67209;51.698;-0.292;2023-08-20T08:42:08;7.97;;;1.65;;
78004;SDS011;67209;51.698;-0.292;2023-08-20T08:44:36;7.07;;;1.85;;
78004;SDS011;67209;51.698;-0.292;2023-08-20T08:47:02;8.25;;;2.47;;
78004;SDS011;67209;51.698;-0.292;2023-08-20T08:49:30;3.97;;;1.63;;
78004;SDS011;67209;51.698;-0.292;2023-08-20T08:51:58;7.38;;;1.90;;
78004;SDS011;67209;51.698;-0.292;2023-08-20T08:54:26;5.20;;;2.20;;
78004;SDS011;67209;51.698;-0.292;2023-08-20T08:56:52;11.93;;;2.08;;
78004;SDS011;67209;51.698;-0.292;2023-08-20T08:59:18;7.85;;;2.00;;
78004;SDS011;67209;51.698;-0.292;2023-08-20T09:01:44;7.68;;;1.75;;
78004;SDS011;67209;51.698;-0.292;2023-08-20T09:04:10;5.85;;;1.88;;
78004;SDS011;67209;51.698;-0.292;2023-08-20T09:06:46;7.40;;;1.90;;
78004;SDS011;67209;51.698;-0.292;2023-08-20T09:09:12;6.75;;;1.80;;
78004;SDS011;67209;51.698;-0.292;2023-08-20T09:11:39;5.90;;;1.48;;
78004;SDS011;67209;51.698;-0.292;2023-08-20T09:14:05;6.68;;;1.50;;
78004;SDS011;67209;51.698;-0.292;2023-08-20T09:16:31;5.70;;;1.67;;
78004;SDS011;67209;51.698;-0.292;2023-08-20T09:19:00;5.53;;;1.52;;
78004;SDS011;67209;51.698;-0.292;2023-08-20T09:21:29;4.10;;;1.35;;
78004;SDS011;67209;51.698;-0.292;2023-08-20T09:23:56;7.78;;;2.17;;
78004;SDS011;67209;51.698;-0.292;2023-08-20T09:26:25;5.15;;;1.70;;
78004;SDS011;67209;51.698;-0.292;2023-08-20T09:28:53;6.13;;;1.60;;
78004;SDS011;67209;51.698;-0.292;2023-08-20T09:31:20;5.47;;;1.30;;
78004;SDS011;67209;51.698;-0.292;2023-08-20T09:33:49;8.10;;;1.88;;
78004;SDS011;67209;51.698;-0.292;2023-08-20T09:36:16;5.75;;;1.27;;
78004;SDS011;67209;51.698;-0.292;2023-08-20T09:38:42;4.72;;;1.85;;
78004;SDS011;67209;51.698;-0.292;2023-08-20T09:41:08;7.70;;;1.65;;
78004;SDS011;67209;51.698;-0.292;2023-08-20T09:43:35;4.13;;;1.27;;
78004;SDS011;67209;51.698;-0.292;2023-08-20T09:46:03;6.40;;;1.40;;
78004;SDS011;67209;51.698;-0.292;2023-08-20T09:48:29;5.95;;;1.38;;
78004;SDS011;67209;51.698;-0.292;2023-08-20T09:50:59;5.10;;;1.40;;
78004;SDS011;67209;51.698;-0.292;2023-08-20T09:53:27;5.20;;;1.70;;
78004;SDS011;67209;51.698;-0.292;2023-08-20T09:55:53;6.13;;;1.30;;
78004;SDS011;67209;51.698;-0.292;2023-08-20T09:58:21;4.80;;;1.40;;
78004;SDS011;67209;51.698;-0.292;2023-08-20T10:00:51;5.60;;;1.40;;
78004;SDS011;67209;51.698;-0.292;2023-08-20T10:03:18;6.55;;;1.88;;
78004;SDS011;67209;51.698;-0.292;2023-08-20T10:05:46;6.18;;;1.30;;
78004;SDS011;67209;51.698;-0.292;2023-08-20T10:08:12;5.60;;;1.55;;
78004;SDS011;67209;51.698;-0.292;2023-08-20T10:10:38;3.50;;;1.20;;
78004;SDS011;67209;51.698;-0.292;2023-08-20T10:13:05;5.10;;;1.60;;
78004;SDS011;67209;51.698;-0.292;2023-08-20T10:15:31;4.15;;;1.13;;
78004;SDS011;67209;51.698;-0.292;2023-08-20T10:17:59;2.92;;;1.08;;
78004;SDS011;67209;51.698;-0.292;2023-08-20T10:20:26;3.95;;;0.82;;
78004;SDS011;67209;51.698;-0.292;2023-08-20T10:22:54;4.68;;;1.42;;
78004;SDS011;67209;51.698;-0.292;2023-08-20T10:25:25;3.42;;;1.23;;
78004;SDS011;67209;51.698;-0.292;2023-08-20T10:27:51;6.75;;;1.25;;
78004;SDS011;67209;51.698;-0.292;2023-08-20T10:30:18;4.63;;;1.45;;
78004;SDS011;67209;51.698;-0.292;2023-08-20T10:32:49;4.75;;;1.17;;
78004;SDS011;67209;51.698;-0.292;2023-08-20T10:35:28;4.85;;;1.15;;
78004;SDS011;67209;51.698;-0.292;2023-08-20T10:38:04;4.75;;;1.15;;
78004;SDS011;67209;51.698;-0.292;2023-08-20T10:48:29;3.78;;;1.00;;
78004;SDS011;67209;51.698;-0.292;2023-08-20T10:50:56;1.73;;;0.85;;
78004;SDS011;67209;51.698;-0.292;2023-08-20T10:53:22;3.92;;;1.30;;
78004;SDS011;67209;51.698;-0.292;2023-08-20T10:55:48;3.58;;;0.80;;
78004;SDS011;67209;51.698;-0.292;2023-08-20T10:58:15;2.45;;;0.80;;
78004;SDS011;67209;51.698;-0.292;2023-08-20T11:00:41;4.13;;;0.93;;
78004;SDS011;67209;51.698;-0.292;2023-08-20T11:03:08;2.05;;;0.50;;
78004;SDS011;67209;51.698;-0.292;2023-08-20T11:05:34;3.08;;;0.80;;
78004;SDS011;67209;51.698;-0.292;2023-08-20T11:08:00;4.97;;;1.00;;
78004;SDS011;67209;51.698;-0.292;2023-08-20T11:10:28;4.13;;;1.02;;
78004;SDS011;67209;51.698;-0.292;2023-08-20T11:12:54;1.60;;;0.90;;
78004;SDS011;67209;51.698;-0.292;2023-08-20T11:15:20;3.05;;;0.88;;
78004;SDS011;67209;51.698;-0.292;2023-08-20T11:17:47;4.03;;;1.05;;
78004;SDS011;67209;51.698;-0.292;2023-08-20T11:20:16;3.53;;;0.88;;
78004;SDS011;67209;51.698;-0.292;2023-08-20T11:22:42;4.60;;;1.00;;
78004;SDS011;67209;51.698;-0.292;2023-08-20T11:25:11;3.97;;;0.80;;
78004;SDS011;67209;51.698;-0.292;2023-08-20T11:27:41;1.45;;;0.90;;
78004;SDS011;67209;51.698;-0.292;2023-08-20T11:30:07;3.53;;;0.73;;
78004;SDS011;67209;51.698;-0.292;2023-08-20T11:32:34;1.80;;;0.60;;
78004;SDS011;67209;51.698;-0.292;2023-08-20T11:35:01;2.40;;;0.90;;
78004;SDS011;67209;51.698;-0.292;2023-08-20T11:37:27;3.42;;;1.00;;
78004;SDS011;67209;51.698;-0.292;2023-08-20T11:39:53;3.63;;;0.98;;
78004;SDS011;67209;51.698;-0.292;2023-08-20T11:42:19;0.98;;;0.50;;
78004;SDS011;67209;51.698;-0.292;2023-08-20T11:44:46;4.60;;;1.08;;
78004;SDS011;67209;51.698;-0.292;2023-08-20T11:47:15;3.45;;;0.80;;
78004;SDS011;67209;51.698;-0.292;2023-08-20T11:49:41;1.63;;;0.70;;
78004;SDS011;67209;51.698;-0.292;2023-08-20T11:52:07;3.88;;;0.82;;
78004;SDS011;67209;51.698;-0.292;2023-08-20T11:54:34;2.72;;;0.70;;
78004;SDS011;67209;51.698;-0.292;2023-08-20T11:57:04;3.35;;;1.02;;
78004;SDS011;67209;51.698;-0.292;2023-08-20T11:59:30;2.15;;;0.90;;
78004;SDS011;67209;51.698;-0.292;2023-08-20T12:01:57;1.90;;;0.70;;
78004;SDS011;67209;51.698;-0.292;2023-08-20T12:04:25;1.92;;;0.80;;
78004;SDS011;67209;51.698;-0.292;2023-08-20T12:09:32;2.28;;;0.80;;
78004;SDS011;67209;51.698;-0.292;2023-08-20T12:11:58;2.70;;;0.90;;
78004;SDS011;67209;51.698;-0.292;2023-08-20T12:14:26;2.60;;;0.63;;
78004;SDS011;67209;51.698;-0.292;2023-08-20T12:16:53;2.70;;;0.90;;
78004;SDS011;67209;51.698;-0.292;2023-08-20T12:19:20;1.92;;;0.70;;
78004;SDS011;67209;51.698;-0.292;2023-08-20T12:21:46;2.00;;;0.98;;
78004;SDS011;67209;51.698;-0.292;2023-08-20T12:24:13;4.03;;;1.25;;
78004;SDS011;67209;51.698;-0.292;2023-08-20T12:26:40;6.18;;;0.68;;
78004;SDS011;67209;51.698;-0.292;2023-08-20T12:29:06;3.35;;;1.30;;
78004;SDS011;67209;51.698;-0.292;2023-08-20T12:31:32;3.47;;;0.80;;
78004;SDS011;67209;51.698;-0.292;2023-08-20T12:33:59;2.13;;;0.80;;
78004;SDS011;67209;51.698;-0.292;2023-08-20T12:36:25;4.68;;;1.02;;
78004;SDS011;67209;51.698;-0.292;2023-08-20T12:38:51;3.05;;;0.60;;
78004;SDS011;67209;51.698;-0.292;2023-08-20T12:41:18;2.70;;;0.80;;
78004;SDS011;67209;51.698;-0.292;2023-08-20T12:43:44;5.15;;;1.17;;
78004;SDS011;67209;51.698;-0.292;2023-08-20T12:46:11;2.92;;;0.75;;
78004;SDS011;67209;51.698;-0.292;2023-08-20T12:48:38;1.77;;;0.73;;
78004;SDS011;67209;51.698;-0.292;2023-08-20T12:51:04;1.27;;;0.57;;
78004;SDS011;67209;51.698;-0.292;2023-08-20T12:53:30;0.85;;;0.38;;
78004;SDS011;67209;51.698;-0.292;2023-08-20T12:55:56;2.35;;;0.70;;
78004;SDS011;67209;51.698;-0.292;2023-08-20T12:58:22;2.75;;;0.90;;
78004;SDS011;67209;51.698;-0.292;2023-08-20T13:00:49;3.45;;;0.90;;
78004;SDS011;67209;51.698;-0.292;2023-08-20T13:03:16;3.20;;;0.60;;
78004;SDS011;67209;51.698;-0.292;2023-08-20T13:05:42;7.15;;;1.30;;
78004;SDS011;67209;51.698;-0.292;2023-08-20T13:08:09;2.28;;;0.60;;
78004;SDS011;67209;51.698;-0.292;2023-08-20T13:10:37;3.47;;;0.90;;
78004;SDS011;67209;51.698;-0.292;2023-08-20T13:13:04;1.73;;;0.95;;
78004;SDS011;67209;51.698;-0.292;2023-08-20T13:15:30;3.30;;;0.88;;
78004;SDS011;67209;51.698;-0.292;2023-08-20T13:17:56;6.45;;;1.02;;
78004;SDS011;67209;51.698;-0.292;2023-08-20T13:20:22;3.35;;;0.70;;
78004;SDS011;67209;51.698;-0.292;2023-08-20T13:22:49;3.58;;;0.60;;
78004;SDS011;67209;51.698;-0.292;2023-08-20T13:25:16;3.10;;;0.77;;
78004;SDS011;67209;51.698;-0.292;2023-08-20T13:27:42;2.58;;;0.63;;
78004;SDS011;67209;51.698;-0.292;2023-08-20T13:30:08;1.30;;;0.60;;
78004;SDS011;67209;51.698;-0.292;2023-08-20T13:32:35;1.73;;;0.80;;
78004;SDS011;67209;51.698;-0.292;2023-08-20T13:35:01;1.85;;;0.60;;
78004;SDS011;67209;51.698;-0.292;2023-08-20T13:37:29;1.40;;;0.60;;
78004;SDS011;67209;51.698;-0.292;2023-08-20T13:39:58;4.55;;;0.88;;
78004;SDS011;67209;51.698;-0.292;2023-08-20T13:42:24;2.22;;;0.80;;
78004;SDS011;67209;51.698;-0.292;2023-08-20T13:44:50;2.58;;;0.77;;
78004;SDS011;67209;51.698;-0.292;2023-08-20T13:47:16;3.17;;;1.25;;
78004;SDS011;67209;51.698;-0.292;2023-08-20T13:49:42;1.88;;;0.60;;
78004;SDS011;67209;51.698;-0.292;2023-08-20T13:52:09;2.42;;;0.93;;
78004;SDS011;67209;51.698;-0.292;2023-08-20T13:54:35;2.75;;;0.90;;
78004;SDS011;67209;51.698;-0.292;2023-08-20T13:57:01;3.08;;;0.70;;
78004;SDS011;67209;51.698;-0.292;2023-08-20T13:59:28;1.67;;;0.70;;
78004;SDS011;67209;51.698;-0.292;2023-08-20T14:01:54;3.58;;;0.90;;
78004;SDS011;67209;51.698;-0.292;2023-08-20T14:04:20;2.75;;;0.80;;
78004;SDS011;67209;51.698;-0.292;2023-08-20T14:06:46;3.30;;;0.93;;
78004;SDS011;67209;51.698;-0.292;2023-08-20T14:09:13;2.30;;;1.00;;
78004;SDS011;67209;51.698;-0.292;2023-08-20T14:11:39;1.88;;;0.88;;
78004;SDS011;67209;51.698;-0.292;2023-08-20T14:14:05;3.35;;;0.85;;
78004;SDS011;67209;51.698;-0.292;2023-08-20T14:16:31;2.75;;;0.93;;
78004;SDS011;67209;51.698;-0.292;2023-08-20T14:18:57;3.28;;;1.20;;
78004;SDS011;67209;51.698;-0.292;2023-08-20T14:21:23;2.30;;;0.88;;
78004;SDS011;67209;51.698;-0.292;2023-08-20T14:23:49;2.78;;;0.90;;
78004;SDS011;67209;51.698;-0.292;2023-08-20T14:26:15;2.72;;;1.00;;
78004;SDS011;67209;51.698;-0.292;2023-08-20T14:28:41;1.90;;;1.00;;
78004;SDS011;67209;51.698;-0.292;2023-08-20T14:31:10;2.72;;;0.73;;
78004;SDS011;67209;51.698;-0.292;2023-08-20T14:33:36;3.35;;;1.08;;
78004;SDS011;67209;51.698;-0.292;2023-08-20T14:36:02;2.60;;;0.90;;
78004;SDS011;67209;51.698;-0.292;2023-08-20T14:38:29;2.38;;;0.80;;
78004;SDS011;67209;51.698;-0.292;2023-08-20T14:40:59;2.35;;;0.70;;
78004;SDS011;67209;51.698;-0.292;2023-08-20T14:43:25;2.70;;;0.90;;
78004;SDS011;67209;51.698;-0.292;2023-08-20T14:45:51;2.28;;;0.68;;